ADDS METAR Data INFO
IDs: Format: Raw Decoded Include TAF

Data at: 0715 UTC 24 Jun 2018

KHDN 240656Z AUTO 33009G15KT 10SM -RA FEW033 BKN060 OVC075 16/03 A3006 RMK AO2 LTG DSNT SW RAB41 SLP095 P0001 T01560033
KHDN 240556Z AUTO 07014KT 10SM FEW070 SCT090 BKN110 15/06 A3003 RMK AO2 PK WND 10029/0539 RAE49 SLP087 P0000 60000 T01500056 10256 20150 402780072 50027
KHDN 240456Z AUTO 05016G29KT 10SM -RA SCT065 BKN080 OVC095 16/05 A3004 RMK AO2 PK WND 05029/0453 WSHFT 0348 RAE03B45 SLP094 P0000 T01610050
KHDN 240408Z AUTO 02010KT 10SM OVC100 19/02 A3002 RMK AO2 WSHFT 0348 RAE03 P0000
KHDN 240356Z AUTO 36014G19KT 10SM -RA OVC100 20/02 A3001 RMK AO2 TSE0259B01E07RAE03B52 PRESRR SLP076 P0000 T02000017
KHDN 240313Z AUTO 35014G21KT 10SM FEW080 OVC110 21/01 A2994 RMK AO2 LTG DSNT NE-S TSE0259B01E07RAE03 P0000
KHDN 240301Z AUTO 35010KT 10SM -TSRA SCT085 BKN110 20/03 A2993 RMK AO2 LTG DSNT N AND S TSE0259B01 P0000
KHDN 240256Z AUTO 36012KT 10SM -TSRA SCT090 OVC110 20/04 A2993 RMK AO2 LTG DSNT N AND S TSB21RAE0158B50 SLP057 P0000 60000 T02000039 53006
KHDN 240227Z AUTO 03008KT 10SM VCTS FEW070 BKN120 21/03 A2991 RMK AO2 LTG DSNT N TSB21RAE0158 P0000
KHDN 240156Z AUTO 34008G27KT 10SM -RA FEW075 OVC120 21/03 A2990 RMK AO2 PK WND 25027/0149 LTG DSNT N AND NE TSB0057E22B39E53B55E56RAB0057E08B42 SLP050 P0000 T02110028
KHDN 240145Z AUTO 27008KT 10SM VCTS -RA FEW065 BKN120 22/02 A2991 RMK AO2 LTG DSNT N AND W TSB0057E22B39RAB0057E08B42 P0000
KHDN 240128Z AUTO 17004KT 10SM FEW100 BKN120 23/01 A2989 RMK AO2 LTG DSNT W TSB0057E22RAB0057E08 P0000
KHDN 240103Z AUTO 24014G21KT 10SM VCTS -RA FEW110 24/M02 A2990 RMK AO2 LTG DSNT N TSB0057RAB0057 P0000
KHDN 240056Z AUTO 23016G36KT 10SM SCT110 24/M02 A2990 RMK AO2 PK WND 27036/0048 LTG DSNT NW TSE30B32E50RAE00 SLP052 P0000 T02391017
KHDN 240032Z AUTO 20014G24KT 10SM TS CLR 24/00 A2990 RMK AO2 PK WND 23031/0004 LTG DSNT NE AND NW TSE30B32RAE00 P0000
KHDN 232356Z AUTO 21020G26KT 10SM -TSRA FEW060 BKN120 24/01 A2991 RMK AO2 PK WND 21026/2348 LTG DSNT SE TSB43RAB48 SLP059 P0000 60000 T02390006 10278 20222 56020
KHDN 232349Z AUTO 20020G26KT 10SM -TSRA FEW060 BKN120 24/00 A2990 RMK AO2 PK WND 21026/2348 TSB43RAB48 P0000
KHDN 232256Z AUTO 27016G25KT 10SM CLR 27/M03 A2992 RMK AO2 PK WND 28036/2210 SLP053 T02721028
KHDN 232156Z AUTO 25019G25KT 10SM CLR 28/M04 A2995 RMK AO2 SLP063 T02781039
KHDN 232056Z AUTO 30004KT 10SM FEW100 25/M02 A2998 RMK AO2 SLP074 T02501022 56027
KHDN 231956Z AUTO 36005KT 10SM CLR 24/M01 A3001 RMK AO2 SLP083 T02441011
KHDN 231856Z AUTO 00000KT 10SM CLR 23/M02 A3004 RMK AO2 SLP096 T02331017
KHDN 231756Z AUTO 31007KT 260V330 10SM CLR 22/M01 A3007 RMK AO2 SLP110 T02221006 10228 20072 58010
KHDN 231656Z AUTO VRB03KT 10SM CLR 21/02 A3009 RMK AO2 SLP114 T02060022 TSNO
KHDN 231556Z AUTO 08005KT 10SM CLR 18/03 A3010 RMK AO2 SLP118 T01830028
KHDN 231456Z AUTO 10009KT 10SM CLR 16/02 A3011 RMK AO2 SLP120 T01560022 50001
KHDN 231356Z AUTO 10009KT 10SM CLR 13/02 A3011 RMK AO2 SLP121 T01280017
KHDN 231256Z AUTO 10006KT 10SM CLR 09/01 A3011 RMK AO2 SLP126 T00940011
KHDN 231156Z AUTO 11012KT 10SM CLR 07/01 A3011 RMK AO2 SLP127 T00720011 10128 20072 55003
KHDN 231056Z AUTO 11009KT 10SM CLR 08/01 A3010 RMK AO2 SLP122 T00830011
KHDN 230956Z AUTO 13006KT 10SM CLR 08/00 A3010 RMK AO2 SLP122 T00780000
KHDN 230856Z AUTO 08006KT 10SM CLR 10/01 A3012 RMK AO2 SLP125 T01000006 58003
KHDN 230756Z AUTO 09004KT 10SM CLR 12/M01 A3013 RMK AO2 SLP126 T01171006
KHDN 230656Z AUTO 22005KT 10SM CLR 12/M01 A3012 RMK AO2 SLP123 T01221011
KHDN 230556Z AUTO 21004KT 10SM CLR 12/M01 A3013 RMK AO2 SLP127 T01171011 10244 20117 402610117 51012
KHDN 230456Z AUTO 21006KT 10SM CLR 14/M02 A3012 RMK AO2 SLP125 T01441017
KHDN 230356Z AUTO 22006KT 10SM CLR 16/M02 A3011 RMK AO2 SLP126 T01561017
KHDN 230256Z AUTO 33005KT 10SM CLR 19/00 A3009 RMK AO2 SLP111 T01940000 53010
KHDN 230156Z AUTO 32014G19KT 10SM CLR 22/M01 A3007 RMK AO2 PK WND 32026/0114 SLP101 T02221011
KHDN 230056Z AUTO 32019G23KT 10SM CLR 23/M01 A3006 RMK AO2 PK WND 33030/0029 SLP099 T02331006
KHDN 222356Z AUTO 32023G30KT 10SM CLR 24/M01 A3005 RMK AO2 PK WND 32030/2353 SLP091 T02441011 10261 20222 56009
KHDN 222256Z AUTO 28019G25KT 10SM CLR 25/M02 A3005 RMK AO2 PK WND 32029/2233 SLP091 T02501017
KHDN 222156Z AUTO 30019G26KT 10SM CLR 26/M01 A3006 RMK AO2 PK WND 28030/2132 SLP091 T02561011
KHDN 222056Z AUTO 26016G22KT 10SM CLR 24/M01 A3008 RMK AO2 PK WND 31028/2032 SLP103 T02441006 58012
KHDN 221956Z AUTO 28013G22KT 10SM CLR 24/M01 A3010 RMK AO2 PK WND 28026/1940 SLP107 T02391006